aviador You're here:

CYKL Decoded Metar

SCHEFFERVILLE in QC, CANADA
Report Time2018-06-21 21:00:00
UTC Time2018-06-21 21:46:12
Flight Rules vfr VFR
Wind310° at 07 Gusting to 15 kt
W.Decomp.*RWY 36: 6.2 kt HW 3.3 kt LCW
W.Rank310° ranks 5
Current wind is below 310° avg. (9.6)
Visibility9999 m
Phenomena:N/A
Clouds:Scattered 034 Hf
Overcast 047 Hf
Expected CloudBase > 2,800 ft AGL from Temp-Dew spread
Ceiling4,700 ft
Temp09°C (ISA -3)
Dew Point02°C (62% RH)
AAT4.8°C
QNH1007 hPa
Density Alt1,703 ft
Elevation1,709 ft
Report Wrong Elevation
Raw Report
CYKL 212100Z AUTO 31007G15KT 280V340 9SM SCT034 OVC047 09/02 A2973
RMK SLP091=

Extra information for CYKL:More info

Metar Taf Metar & Taf Last 4 Metars F.Rules Stats Wind Profile Meteogram Temp Stats Airport Information Weather charts Add Link Nearby VenuesMetar ALERT Operation Metar Decoded Social comments